Minot Air Force Base, ND

7:14 PM CST on February 05, 2016 (GMT -0600)
Minot Air Force Base | | Change Station
CLOSE
Current Station
Airport
Location: Minot AFB,
Elevation: 1667 ft
Nearby Weather Stations
Active Advisory: High Wind Watch

Elev 1667 ft 48.42 °N, 101.36 °W | Updated 16 minutes ago

Clear
Clear
27 °F
Feels Like 27 °F
N
0
Wind Variable Wind from North

Today
High -- | Low -- °F
--% Chance of Precip.
Yesterday
High -- | Low -- °F
Precip. -- in
Pressure 30.12 in
Visibility 10.0 miles
Clouds Clear
Dew Point 22 °F
Humidity 81%
Rainfall 0.00 in
Snow Depth Not available.
8:09 AM 5:50 PM
Waning Crescent, 8% visible
METAR KMIB 060058Z AUTO 00000KT 10SM CLR M03/M06 A3002 RMK AO2 SLP198 T10281056 $
Pressure 30.12 in
Visibility 10.0 miles
Clouds Clear
Dew Point 22 °F
Humidity 81%
Rainfall 0.00 in
Snow Depth Not available.
8:09 AM 5:50 PM
Waning Crescent, 8% visible
METAR KMIB 060058Z AUTO 00000KT 10SM CLR M03/M06 A3002 RMK AO2 SLP198 T10281056 $

10-Day Weather Forecast

Almanac

Astronomy

Feb. 05, 2016 Rise Set
Actual Time
Civil Twilight
Nautical Twilight
Astronomical Twilight
Moon
Length of Visible Light
Length of Day
Tomorrow will be .
, % of the Moon is Illuminated

Today's Extremes

State Highs State Lows

Community

WunderPhotos

Upload Photos

1,890,904 photos uploaded!

WunderBlog® & News

Nearby

Air Quality

  Air Quality AQ Index Pollutant
Not available.

Snow Depth

Station Depth Elevation

Earthquake Activity

City Distance Mag. Time & Date
Minimum magnitude displayed is 2.5.

Coastal Water Temperatures

Place Temperature

Stations

Nearby Weather Stations

Station Location Temp. Windchill Dew Point Humidity Wind Precip. Elev Updated Type
                   

Watches & Warnings

High Wind Watch
Issued: 6:09 PM CST Feb. 5, 2016 – National Weather Service

... High wind watch remains in effect from late Saturday night
through Sunday evening...

* timing... late Saturday night through Sunday evening.

* Winds... northwest winds gusting up to 65 mph are possible.

* Impacts... travel may become hazardous over western into many
portions of central North Dakota. Snow and blowing snow may
reduce visibilities on Sunday.

Precautionary/preparedness actions...

A high wind watch means there is the potential for a hazardous
high wind event. Sustained winds of at least 40 mph... or gusts of
58 mph or stronger may occur. Continue to monitor the latest
forecasts.